sensor_id;sensor_type;location;lat;lon;timestamp;pressure;altitude;pressure_sealevel;temperature;humidity
25855;BME280;13680;49.936;11.344;2024-02-21T00:00:15;97503.78;;;7.75;78.05
25855;BME280;13680;49.936;11.344;2024-02-21T00:02:40;97505.66;;;7.74;77.64
25855;BME280;13680;49.936;11.344;2024-02-21T00:05:06;97506.22;;;7.76;77.52
25855;BME280;13680;49.936;11.344;2024-02-21T00:07:31;97508.03;;;7.65;77.79
25855;BME280;13680;49.936;11.344;2024-02-21T00:09:57;97501.91;;;7.75;77.54
25855;BME280;13680;49.936;11.344;2024-02-21T00:12:22;97504.09;;;7.78;77.46
25855;BME280;13680;49.936;11.344;2024-02-21T00:14:47;97505.91;;;7.73;77.68
25855;BME280;13680;49.936;11.344;2024-02-21T00:17:13;97489.34;;;7.76;77.81
25855;BME280;13680;49.936;11.344;2024-02-21T00:19:38;97496.56;;;7.75;77.87
25855;BME280;13680;49.936;11.344;2024-02-21T00:22:03;97492.25;;;7.69;78.06
25855;BME280;13680;49.936;11.344;2024-02-21T00:24:29;97498.72;;;7.78;77.78
25855;BME280;13680;49.936;11.344;2024-02-21T00:26:54;97491.47;;;7.79;77.85
25855;BME280;13680;49.936;11.344;2024-02-21T00:29:19;97481.81;;;7.73;77.84
25855;BME280;13680;49.936;11.344;2024-02-21T00:31:45;97480.50;;;7.75;78.06
25855;BME280;13680;49.936;11.344;2024-02-21T00:34:10;97470.31;;;7.72;77.80
25855;BME280;13680;49.936;11.344;2024-02-21T00:36:37;97469.50;;;7.77;77.43
25855;BME280;13680;49.936;11.344;2024-02-21T00:39:02;97468.72;;;7.76;77.65
25855;BME280;13680;49.936;11.344;2024-02-21T00:41:28;97467.38;;;7.68;78.20
25855;BME280;13680;49.936;11.344;2024-02-21T00:43:53;97458.78;;;7.72;77.78
25855;BME280;13680;49.936;11.344;2024-02-21T00:46:18;97462.78;;;7.64;78.04
25855;BME280;13680;49.936;11.344;2024-02-21T00:48:44;97459.81;;;7.55;78.67
25855;BME280;13680;49.936;11.344;2024-02-21T00:51:09;97452.34;;;7.57;78.67
25855;BME280;13680;49.936;11.344;2024-02-21T00:53:34;97450.72;;;7.56;79.14
25855;BME280;13680;49.936;11.344;2024-02-21T00:56:04;97448.88;;;7.62;79.20
25855;BME280;13680;49.936;11.344;2024-02-21T00:58:30;97444.84;;;7.59;78.82
25855;BME280;13680;49.936;11.344;2024-02-21T01:00:55;97448.63;;;7.68;78.58
25855;BME280;13680;49.936;11.344;2024-02-21T01:03:20;97447.00;;;7.67;78.67
25855;BME280;13680;49.936;11.344;2024-02-21T01:05:46;97445.94;;;7.63;79.05
25855;BME280;13680;49.936;11.344;2024-02-21T01:08:11;97444.34;;;7.73;78.45
25855;BME280;13680;49.936;11.344;2024-02-21T01:10:36;97438.97;;;7.67;78.84
25855;BME280;13680;49.936;11.344;2024-02-21T01:13:02;97438.97;;;7.67;78.67
25855;BME280;13680;49.936;11.344;2024-02-21T01:15:27;97433.63;;;7.67;78.72
25855;BME280;13680;49.936;11.344;2024-02-21T01:17:53;97429.63;;;7.70;79.16
25855;BME280;13680;49.936;11.344;2024-02-21T01:20:20;97427.72;;;7.65;79.19
25855;BME280;13680;49.936;11.344;2024-02-21T01:22:46;97437.34;;;7.61;79.20
25855;BME280;13680;49.936;11.344;2024-02-21T01:25:11;97430.44;;;7.70;78.46
25855;BME280;13680;49.936;11.344;2024-02-21T01:27:37;97420.25;;;7.67;78.95
25855;BME280;13680;49.936;11.344;2024-02-21T01:30:02;97425.09;;;7.70;79.14
25855;BME280;13680;49.936;11.344;2024-02-21T01:32:28;97422.34;;;7.60;79.39
25855;BME280;13680;49.936;11.344;2024-02-21T01:34:53;97422.41;;;7.70;79.15
25855;BME280;13680;49.936;11.344;2024-02-21T01:37:19;97415.41;;;7.64;79.45
25855;BME280;13680;49.936;11.344;2024-02-21T01:39:44;97407.41;;;7.75;79.09
25855;BME280;13680;49.936;11.344;2024-02-21T01:42:09;97414.13;;;7.77;79.03
25855;BME280;13680;49.936;11.344;2024-02-21T01:44:35;97403.69;;;7.81;78.67
25855;BME280;13680;49.936;11.344;2024-02-21T01:47:00;97408.22;;;7.80;79.09
25855;BME280;13680;49.936;11.344;2024-02-21T01:49:26;97403.41;;;7.88;79.14
25855;BME280;13680;49.936;11.344;2024-02-21T01:51:52;97403.13;;;7.84;78.87
25855;BME280;13680;49.936;11.344;2024-02-21T01:54:18;97394.03;;;7.80;79.37
25855;BME280;13680;49.936;11.344;2024-02-21T01:56:46;97402.59;;;7.82;79.46
25855;BME280;13680;49.936;11.344;2024-02-21T01:59:12;97391.34;;;7.80;79.24
25855;BME280;13680;49.936;11.344;2024-02-21T02:01:39;97383.34;;;7.90;78.68
25855;BME280;13680;49.936;11.344;2024-02-21T02:04:05;97379.59;;;7.86;78.85
25855;BME280;13680;49.936;11.344;2024-02-21T02:06:31;97379.84;;;7.90;79.42
25855;BME280;13680;49.936;11.344;2024-02-21T02:08:56;97378.78;;;7.85;78.92
25855;BME280;13680;49.936;11.344;2024-02-21T02:11:22;97388.69;;;7.80;79.51
25855;BME280;13680;49.936;11.344;2024-02-21T02:13:48;97386.53;;;7.87;79.32
25855;BME280;13680;49.936;11.344;2024-02-21T02:16:13;97389.22;;;7.87;79.47
25855;BME280;13680;49.936;11.344;2024-02-21T02:18:39;97387.88;;;7.84;79.41
25855;BME280;13680;49.936;11.344;2024-02-21T02:21:10;97384.94;;;7.91;78.85
25855;BME280;13680;49.936;11.344;2024-02-21T02:23:39;97377.16;;;7.79;79.54
25855;BME280;13680;49.936;11.344;2024-02-21T02:26:05;97379.03;;;7.84;79.42
25855;BME280;13680;49.936;11.344;2024-02-21T02:28:32;97376.09;;;7.80;79.68
25855;BME280;13680;49.936;11.344;2024-02-21T02:30:57;97379.88;;;7.95;78.87
25855;BME280;13680;49.936;11.344;2024-02-21T02:33:23;97377.72;;;7.92;79.48
25855;BME280;13680;49.936;11.344;2024-02-21T02:35:48;97371.00;;;7.94;79.46
25855;BME280;13680;49.936;11.344;2024-02-21T02:38:14;97360.31;;;7.94;79.66
25855;BME280;13680;49.936;11.344;2024-02-21T02:40:40;97354.94;;;7.99;78.93
25855;BME280;13680;49.936;11.344;2024-02-21T02:43:06;97342.09;;;7.96;78.91
25855;BME280;13680;49.936;11.344;2024-02-21T02:45:32;97342.09;;;8.01;78.91
25855;BME280;13680;49.936;11.344;2024-02-21T02:47:58;97346.91;;;7.99;78.67
25855;BME280;13680;49.936;11.344;2024-02-21T02:50:24;97332.72;;;8.04;78.45
25855;BME280;13680;49.936;11.344;2024-02-21T02:52:49;97332.72;;;8.09;78.92
25855;BME280;13680;49.936;11.344;2024-02-21T02:55:15;97332.44;;;8.11;78.51
25855;BME280;13680;49.936;11.344;2024-02-21T02:57:40;97339.16;;;8.08;78.52
25855;BME280;13680;49.936;11.344;2024-02-21T03:00:07;97326.81;;;8.17;78.50
25855;BME280;13680;49.936;11.344;2024-02-21T03:02:33;97324.97;;;8.08;78.66
25855;BME280;13680;49.936;11.344;2024-02-21T03:04:58;97317.44;;;8.15;78.47
25855;BME280;13680;49.936;11.344;2024-02-21T03:07:25;97333.00;;;8.02;78.82
25855;BME280;13680;49.936;11.344;2024-02-21T03:09:50;97322.81;;;8.05;78.64
25855;BME280;13680;49.936;11.344;2024-02-21T03:12:16;97323.63;;;8.05;78.89
25855;BME280;13680;49.936;11.344;2024-02-21T03:14:50;97324.97;;;8.02;78.77
25855;BME280;13680;49.936;11.344;2024-02-21T03:17:15;97309.41;;;8.05;78.78
25855;BME280;13680;49.936;11.344;2024-02-21T03:19:41;97320.41;;;8.03;79.38
25855;BME280;13680;49.936;11.344;2024-02-21T03:22:06;97316.94;;;8.08;79.13
25855;BME280;13680;49.936;11.344;2024-02-21T03:24:32;97308.63;;;8.09;78.94
25855;BME280;13680;49.936;11.344;2024-02-21T03:26:58;97306.22;;;8.02;78.77
25855;BME280;13680;49.936;11.344;2024-02-21T03:29:24;97311.59;;;7.97;79.46
25855;BME280;13680;49.936;11.344;2024-02-21T03:31:50;97305.94;;;8.04;79.17
25855;BME280;13680;49.936;11.344;2024-02-21T03:34:15;97300.31;;;8.06;79.09
25855;BME280;13680;49.936;11.344;2024-02-21T03:36:40;97286.38;;;8.09;78.97
25855;BME280;13680;49.936;11.344;2024-02-21T03:39:06;97285.31;;;7.94;79.44
25855;BME280;13680;49.936;11.344;2024-02-21T03:41:33;97281.56;;;8.00;79.13
25855;BME280;13680;49.936;11.344;2024-02-21T03:43:58;97279.44;;;8.02;78.84
25855;BME280;13680;49.936;11.344;2024-02-21T03:46:24;97271.66;;;8.16;78.72
25855;BME280;13680;49.936;11.344;2024-02-21T03:48:50;97275.66;;;8.09;79.12
25855;BME280;13680;49.936;11.344;2024-02-21T03:51:15;97280.78;;;8.05;79.18
25855;BME280;13680;49.936;11.344;2024-02-21T03:53:40;97281.03;;;7.98;80.29
25855;BME280;13680;49.936;11.344;2024-02-21T03:56:06;97282.13;;;8.02;79.93
25855;BME280;13680;49.936;11.344;2024-02-21T03:58:32;97293.59;;;8.13;79.48
25855;BME280;13680;49.936;11.344;2024-02-21T04:01:00;97286.66;;;8.02;79.96
25855;BME280;13680;49.936;11.344;2024-02-21T04:03:25;97289.63;;;7.80;80.55
25855;BME280;13680;49.936;11.344;2024-02-21T04:05:51;97299.25;;;8.12;79.79
25855;BME280;13680;49.936;11.344;2024-02-21T04:08:16;97312.66;;;7.91;80.91
25855;BME280;13680;49.936;11.344;2024-02-21T04:10:41;97308.34;;;8.00;81.15
25855;BME280;13680;49.936;11.344;2024-02-21T04:13:07;97311.03;;;8.06;80.70
25855;BME280;13680;49.936;11.344;2024-02-21T04:15:32;97307.00;;;7.98;81.30
25855;BME280;13680;49.936;11.344;2024-02-21T04:17:58;97308.88;;;7.72;82.13
25855;BME280;13680;49.936;11.344;2024-02-21T04:20:23;97303.00;;;7.90;81.71
25855;BME280;13680;49.936;11.344;2024-02-21T04:22:49;97297.09;;;7.93;81.83
25855;BME280;13680;49.936;11.344;2024-02-21T04:25:14;97286.16;;;7.95;81.98
25855;BME280;13680;49.936;11.344;2024-02-21T04:27:40;97291.75;;;7.88;82.23
25855;BME280;13680;49.936;11.344;2024-02-21T04:30:06;97284.00;;;7.71;83.05
25855;BME280;13680;49.936;11.344;2024-02-21T04:32:32;97291.75;;;7.62;84.09
25855;BME280;13680;49.936;11.344;2024-02-21T04:34:58;97284.00;;;7.86;82.98
25855;BME280;13680;49.936;11.344;2024-02-21T04:37:23;97286.38;;;7.93;82.68
25855;BME280;13680;49.936;11.344;2024-02-21T04:39:50;97281.59;;;7.75;83.77
25855;BME280;13680;49.936;11.344;2024-02-21T04:42:15;97273.56;;;7.75;83.90
25855;BME280;13680;49.936;11.344;2024-02-21T04:44:41;97259.63;;;7.62;84.43
25855;BME280;13680;49.936;11.344;2024-02-21T04:47:06;97260.16;;;7.85;83.21
25855;BME280;13680;49.936;11.344;2024-02-21T04:49:32;97252.66;;;7.97;82.67
25855;BME280;13680;49.936;11.344;2024-02-21T04:51:58;97255.06;;;8.04;81.99
25855;BME280;13680;49.936;11.344;2024-02-21T04:54:23;97251.84;;;8.02;81.94
25855;BME280;13680;49.936;11.344;2024-02-21T04:56:49;97248.38;;;7.91;82.12
25855;BME280;13680;49.936;11.344;2024-02-21T04:59:14;97247.31;;;7.72;83.05
25855;BME280;13680;49.936;11.344;2024-02-21T05:01:40;97255.06;;;7.42;84.36
25855;BME280;13680;49.936;11.344;2024-02-21T05:04:05;97262.31;;;7.52;84.49
25855;BME280;13680;49.936;11.344;2024-02-21T05:06:30;97257.50;;;7.54;84.39
25855;BME280;13680;49.936;11.344;2024-02-21T05:08:56;97249.47;;;7.69;83.63
25855;BME280;13680;49.936;11.344;2024-02-21T05:11:23;97247.31;;;7.77;83.26
25855;BME280;13680;49.936;11.344;2024-02-21T05:13:48;97252.41;;;7.94;82.41
25855;BME280;13680;49.936;11.344;2024-02-21T05:16:13;97253.19;;;7.99;82.17
25855;BME280;13680;49.936;11.344;2024-02-21T05:18:40;97236.88;;;7.70;83.13
25855;BME280;13680;49.936;11.344;2024-02-21T05:21:06;97245.16;;;7.79;83.15
25855;BME280;13680;49.936;11.344;2024-02-21T05:23:31;97242.22;;;7.75;82.82
25855;BME280;13680;49.936;11.344;2024-02-21T05:25:57;97244.09;;;7.85;82.21
25855;BME280;13680;49.936;11.344;2024-02-21T05:28:22;97248.88;;;7.98;81.89
25855;BME280;13680;49.936;11.344;2024-02-21T05:30:47;97248.88;;;8.03;81.95
25855;BME280;13680;49.936;11.344;2024-02-21T05:33:13;97254.25;;;7.98;81.54
25855;BME280;13680;49.936;11.344;2024-02-21T05:35:46;97249.47;;;7.80;82.91
25855;BME280;13680;49.936;11.344;2024-02-21T05:38:11;97244.88;;;7.85;82.37
25855;BME280;13680;49.936;11.344;2024-02-21T05:40:37;97232.31;;;7.91;82.27
25855;BME280;13680;49.936;11.344;2024-02-21T05:43:02;97222.13;;;7.83;82.54
25855;BME280;13680;49.936;11.344;2024-02-21T05:45:27;97220.00;;;7.80;82.55
25855;BME280;13680;49.936;11.344;2024-02-21T05:47:53;97222.13;;;7.93;82.06
25855;BME280;13680;49.936;11.344;2024-02-21T05:50:18;97222.94;;;7.89;82.53
25855;BME280;13680;49.936;11.344;2024-02-21T05:52:44;97220.50;;;7.87;82.80
25855;BME280;13680;49.936;11.344;2024-02-21T05:55:09;97226.97;;;7.91;82.60
25855;BME280;13680;49.936;11.344;2024-02-21T05:57:34;97223.19;;;7.97;82.34
25855;BME280;13680;49.936;11.344;2024-02-21T06:00:00;97226.94;;;8.01;82.39
25855;BME280;13680;49.936;11.344;2024-02-21T06:02:25;97229.34;;;7.98;82.48
25855;BME280;13680;49.936;11.344;2024-02-21T06:04:50;97232.59;;;7.95;82.41
25855;BME280;13680;49.936;11.344;2024-02-21T06:07:15;97238.72;;;8.06;82.14
25855;BME280;13680;49.936;11.344;2024-02-21T06:09:41;97245.69;;;8.07;81.82
25855;BME280;13680;49.936;11.344;2024-02-21T06:12:06;97244.59;;;8.08;81.88
25855;BME280;13680;49.936;11.344;2024-02-21T06:14:32;97238.16;;;8.09;81.85
25855;BME280;13680;49.936;11.344;2024-02-21T06:16:57;97235.47;;;8.09;82.03
25855;BME280;13680;49.936;11.344;2024-02-21T06:19:22;97231.97;;;8.24;81.65
25855;BME280;13680;49.936;11.344;2024-02-21T06:21:48;97227.72;;;8.12;81.37
25855;BME280;13680;49.936;11.344;2024-02-21T06:24:13;97230.13;;;8.03;81.40
25855;BME280;13680;49.936;11.344;2024-02-21T06:26:40;97227.97;;;8.11;81.42
25855;BME280;13680;49.936;11.344;2024-02-21T06:29:06;97228.00;;;7.95;82.08
25855;BME280;13680;49.936;11.344;2024-02-21T06:31:31;97217.56;;;7.99;81.90
25855;BME280;13680;49.936;11.344;2024-02-21T06:33:57;97215.41;;;8.06;81.87
25855;BME280;13680;49.936;11.344;2024-02-21T06:36:22;97211.72;;;7.76;83.07
25855;BME280;13680;49.936;11.344;2024-02-21T06:38:48;97216.25;;;7.81;83.15
25855;BME280;13680;49.936;11.344;2024-02-21T06:41:17;97210.34;;;7.84;82.75
25855;BME280;13680;49.936;11.344;2024-02-21T06:43:44;97209.00;;;7.86;83.18
25855;BME280;13680;49.936;11.344;2024-02-21T06:46:10;97216.25;;;7.86;83.49
25855;BME280;13680;49.936;11.344;2024-02-21T06:48:36;97217.84;;;7.82;83.12
25855;BME280;13680;49.936;11.344;2024-02-21T06:51:01;97221.34;;;7.67;84.16
25855;BME280;13680;49.936;11.344;2024-02-21T06:53:26;97223.50;;;7.34;85.95
25855;BME280;13680;49.936;11.344;2024-02-21T06:55:52;97222.16;;;7.42;86.86
25855;BME280;13680;49.936;11.344;2024-02-21T06:58:17;97222.97;;;7.73;84.98
25855;BME280;13680;49.936;11.344;2024-02-21T07:00:42;97226.44;;;7.53;85.76
25855;BME280;13680;49.936;11.344;2024-02-21T07:03:08;97218.41;;;7.79;84.71
25855;BME280;13680;49.936;11.344;2024-02-21T07:05:33;97219.47;;;7.26;87.93
25855;BME280;13680;49.936;11.344;2024-02-21T07:07:59;97215.72;;;7.74;85.85
25855;BME280;13680;49.936;11.344;2024-02-21T07:10:24;97200.69;;;7.98;84.52
25855;BME280;13680;49.936;11.344;2024-02-21T07:12:49;97209.00;;;7.86;84.12
25855;BME280;13680;49.936;11.344;2024-02-21T07:15:17;97197.53;;;7.60;84.83
25855;BME280;13680;49.936;11.344;2024-02-21T07:17:42;97190.00;;;7.88;84.51
25855;BME280;13680;49.936;11.344;2024-02-21T07:20:08;97184.97;;;7.50;85.88
25855;BME280;13680;49.936;11.344;2024-02-21T07:22:33;97189.50;;;7.40;86.49
25855;BME280;13680;49.936;11.344;2024-02-21T07:24:59;97184.13;;;7.60;85.35
25855;BME280;13680;49.936;11.344;2024-02-21T07:27:24;97195.59;;;7.97;83.68
25855;BME280;13680;49.936;11.344;2024-02-21T07:29:53;97197.97;;;8.14;83.05
25855;BME280;13680;49.936;11.344;2024-02-21T07:32:19;97208.69;;;8.19;82.17
25855;BME280;13680;49.936;11.344;2024-02-21T07:34:44;97207.94;;;7.93;83.66
25855;BME280;13680;49.936;11.344;2024-02-21T07:37:09;97213.59;;;7.76;84.77
25855;BME280;13680;49.936;11.344;2024-02-21T07:39:38;97220.53;;;7.97;84.66
25855;BME280;13680;49.936;11.344;2024-02-21T07:42:03;97220.50;;;7.87;84.41
25855;BME280;13680;49.936;11.344;2024-02-21T07:44:29;97207.34;;;8.16;82.91
25855;BME280;13680;49.936;11.344;2024-02-21T07:46:54;97203.53;;;8.28;83.12
25855;BME280;13680;49.936;11.344;2024-02-21T07:49:19;97202.47;;;8.29;82.58
25855;BME280;13680;49.936;11.344;2024-02-21T07:51:45;97200.47;;;7.74;84.72
25855;BME280;13680;49.936;11.344;2024-02-21T07:54:10;97203.66;;;7.86;84.03
25855;BME280;13680;49.936;11.344;2024-02-21T07:56:35;97198.47;;;8.21;83.46
25855;BME280;13680;49.936;11.344;2024-02-21T07:59:00;97186.13;;;8.30;82.65
25855;BME280;13680;49.936;11.344;2024-02-21T08:01:26;97182.88;;;8.44;81.62
25855;BME280;13680;49.936;11.344;2024-02-21T08:03:51;97185.81;;;8.52;81.00
25855;BME280;13680;49.936;11.344;2024-02-21T08:06:18;97181.88;;;8.14;82.90
25855;BME280;13680;49.936;11.344;2024-02-21T08:08:43;97193.75;;;7.97;82.78
25855;BME280;13680;49.936;11.344;2024-02-21T08:11:08;97189.41;;;8.17;82.67
25855;BME280;13680;49.936;11.344;2024-02-21T08:13:34;97195.09;;;7.84;84.49
25855;BME280;13680;49.936;11.344;2024-02-21T08:16:00;97187.25;;;8.19;82.72
25855;BME280;13680;49.936;11.344;2024-02-21T08:18:25;97189.75;;;7.95;83.19
25855;BME280;13680;49.936;11.344;2024-02-21T08:20:50;97189.41;;;8.12;82.98
25855;BME280;13680;49.936;11.344;2024-02-21T08:23:16;97180.31;;;8.13;82.43
25855;BME280;13680;49.936;11.344;2024-02-21T08:25:42;97168.97;;;8.31;82.28
25855;BME280;13680;49.936;11.344;2024-02-21T08:28:07;97157.03;;;7.98;83.42
25855;BME280;13680;49.936;11.344;2024-02-21T08:30:33;97165.53;;;8.26;82.37
25855;BME280;13680;49.936;11.344;2024-02-21T08:32:59;97166.84;;;8.28;81.82
25855;BME280;13680;49.936;11.344;2024-02-21T08:35:24;97171.34;;;8.38;80.85
25855;BME280;13680;49.936;11.344;2024-02-21T08:37:50;97175.66;;;8.34;80.77
25855;BME280;13680;49.936;11.344;2024-02-21T08:40:15;97179.72;;;8.92;79.63
25855;BME280;13680;49.936;11.344;2024-02-21T08:42:46;97170.94;;;8.76;78.96
25855;BME280;13680;49.936;11.344;2024-02-21T08:45:11;97176.31;;;8.76;79.76
25855;BME280;13680;49.936;11.344;2024-02-21T08:47:39;97176.59;;;8.74;78.75
25855;BME280;13680;49.936;11.344;2024-02-21T08:50:06;97179.34;;;8.59;79.55
25855;BME280;13680;49.936;11.344;2024-02-21T08:52:32;97169.06;;;8.11;81.62
25855;BME280;13680;49.936;11.344;2024-02-21T08:54:57;97169.97;;;8.61;80.54
25855;BME280;13680;49.936;11.344;2024-02-21T08:57:22;97174.34;;;8.26;81.04
25855;BME280;13680;49.936;11.344;2024-02-21T08:59:48;97157.78;;;8.09;81.88
25855;BME280;13680;49.936;11.344;2024-02-21T09:02:13;97162.63;;;8.12;82.81
25855;BME280;13680;49.936;11.344;2024-02-21T09:04:41;97151.78;;;8.43;80.82
25855;BME280;13680;49.936;11.344;2024-02-21T09:07:06;97145.81;;;8.66;79.99
25855;BME280;13680;49.936;11.344;2024-02-21T09:09:31;97158.59;;;8.19;81.44
25855;BME280;13680;49.936;11.344;2024-02-21T09:11:58;97148.38;;;8.27;81.82
25855;BME280;13680;49.936;11.344;2024-02-21T09:14:30;97148.97;;;8.74;80.28
25855;BME280;13680;49.936;11.344;2024-02-21T09:16:56;97142.88;;;9.03;78.62
25855;BME280;13680;49.936;11.344;2024-02-21T09:19:21;97142.59;;;8.64;80.53
25855;BME280;13680;49.936;11.344;2024-02-21T09:21:46;97147.22;;;8.98;78.69
25855;BME280;13680;49.936;11.344;2024-02-21T09:24:12;97147.28;;;8.88;78.94
25855;BME280;13680;49.936;11.344;2024-02-21T09:26:37;97137.28;;;8.54;80.34
25855;BME280;13680;49.936;11.344;2024-02-21T09:29:02;97144.81;;;8.42;80.26
25855;BME280;13680;49.936;11.344;2024-02-21T09:31:29;97136.97;;;8.61;80.30
25855;BME280;13680;49.936;11.344;2024-02-21T09:33:54;97140.56;;;8.91;78.51
25855;BME280;13680;49.936;11.344;2024-02-21T09:36:19;97133.00;;;9.27;77.76
25855;BME280;13680;49.936;11.344;2024-02-21T09:38:46;97128.00;;;9.50;76.71
25855;BME280;13680;49.936;11.344;2024-02-21T09:43:44;97128.31;;;9.73;74.22
25855;BME280;13680;49.936;11.344;2024-02-21T09:46:16;97129.41;;;9.72;75.22
25855;BME280;13680;49.936;11.344;2024-02-21T09:49:11;97126.47;;;9.68;73.45
25855;BME280;13680;49.936;11.344;2024-02-21T09:51:39;97127.81;;;9.41;74.17
25855;BME280;13680;49.936;11.344;2024-02-21T09:54:07;97118.94;;;9.70;74.71
25855;BME280;13680;49.936;11.344;2024-02-21T09:56:32;97117.41;;;9.88;73.94
25855;BME280;13680;49.936;11.344;2024-02-21T09:58:58;97122.06;;;10.50;70.82
25855;BME280;13680;49.936;11.344;2024-02-21T10:01:23;97111.91;;;9.98;70.31
25855;BME280;13680;49.936;11.344;2024-02-21T10:03:49;97117.16;;;9.60;72.28
25855;BME280;13680;49.936;11.344;2024-02-21T10:06:15;97113.16;;;9.82;70.99
25855;BME280;13680;49.936;11.344;2024-02-21T10:08:40;97115.19;;;9.42;71.99
25855;BME280;13680;49.936;11.344;2024-02-21T10:11:05;97103.97;;;9.88;71.53
25855;BME280;13680;49.936;11.344;2024-02-21T10:13:31;97104.97;;;10.41;70.86
25855;BME280;13680;49.936;11.344;2024-02-21T10:16:07;97100.03;;;10.05;70.33
25855;BME280;13680;49.936;11.344;2024-02-21T10:18:33;97094.03;;;10.13;69.97
25855;BME280;13680;49.936;11.344;2024-02-21T10:21:05;97090.75;;;10.40;69.88
25855;BME280;13680;49.936;11.344;2024-02-21T10:23:44;97086.31;;;10.69;67.54
25855;BME280;13680;49.936;11.344;2024-02-21T10:26:10;97080.78;;;11.12;65.83
25855;BME280;13680;49.936;11.344;2024-02-21T10:28:37;97077.44;;;10.68;66.08
25855;BME280;13680;49.936;11.344;2024-02-21T10:31:03;97073.28;;;10.76;66.37
25855;BME280;13680;49.936;11.344;2024-02-21T10:33:28;97072.63;;;11.17;64.96
25855;BME280;13680;49.936;11.344;2024-02-21T10:36:08;97064.47;;;11.22;64.99
25855;BME280;13680;49.936;11.344;2024-02-21T10:38:38;97066.75;;;12.04;63.06
25855;BME280;13680;49.936;11.344;2024-02-21T10:41:07;97067.44;;;11.82;61.56
25855;BME280;13680;49.936;11.344;2024-02-21T10:43:40;97059.72;;;11.33;62.50
25855;BME280;13680;49.936;11.344;2024-02-21T10:46:07;97062.88;;;11.35;64.00
25855;BME280;13680;49.936;11.344;2024-02-21T10:48:41;97058.88;;;11.19;63.00
25855;BME280;13680;49.936;11.344;2024-02-21T10:51:18;97044.97;;;12.14;62.10
25855;BME280;13680;49.936;11.344;2024-02-21T10:54:12;97036.78;;;12.05;61.55
25855;BME280;13680;49.936;11.344;2024-02-21T10:56:39;97026.03;;;12.42;59.13
25855;BME280;13680;49.936;11.344;2024-02-21T10:59:07;97029.06;;;12.63;59.66
25855;BME280;13680;49.936;11.344;2024-02-21T11:01:33;97027.81;;;11.68;59.85
25855;BME280;13680;49.936;11.344;2024-02-21T11:04:06;97027.22;;;11.71;61.09
25855;BME280;13680;49.936;11.344;2024-02-21T11:06:33;97026.81;;;12.06;60.63
25855;BME280;13680;49.936;11.344;2024-02-21T11:09:06;97017.56;;;11.98;59.10
25855;BME280;13680;49.936;11.344;2024-02-21T11:11:41;97023.72;;;11.99;60.05
25855;BME280;13680;49.936;11.344;2024-02-21T11:14:26;97013.94;;;11.33;60.82
25855;BME280;13680;49.936;11.344;2024-02-21T11:16:52;97018.06;;;10.97;62.55
25855;BME280;13680;49.936;11.344;2024-02-21T11:19:22;97006.25;;;11.54;61.38
25855;BME280;13680;49.936;11.344;2024-02-21T11:21:49;97001.78;;;11.63;60.02
25855;BME280;13680;49.936;11.344;2024-02-21T11:24:34;96996.69;;;11.20;61.32
25855;BME280;13680;49.936;11.344;2024-02-21T11:29:44;96976.06;;;12.22;59.14
25855;BME280;13680;49.936;11.344;2024-02-21T11:32:17;96975.41;;;11.88;58.29
25855;BME280;13680;49.936;11.344;2024-02-21T11:35:03;96961.53;;;11.81;59.04
25855;BME280;13680;49.936;11.344;2024-02-21T11:37:32;96958.59;;;11.41;59.34
25855;BME280;13680;49.936;11.344;2024-02-21T11:40:04;96944.16;;;12.60;56.50
25855;BME280;13680;49.936;11.344;2024-02-21T11:42:32;96947.88;;;12.73;56.62
25855;BME280;13680;49.936;11.344;2024-02-21T11:44:57;96949.97;;;12.54;56.71
25855;BME280;13680;49.936;11.344;2024-02-21T11:47:23;96933.91;;;13.03;56.06
25855;BME280;13680;49.936;11.344;2024-02-21T11:49:49;96940.00;;;13.17;54.54
25855;BME280;13680;49.936;11.344;2024-02-21T11:52:21;96933.03;;;13.25;55.61
25855;BME280;13680;49.936;11.344;2024-02-21T11:54:48;96942.56;;;13.22;54.48
25855;BME280;13680;49.936;11.344;2024-02-21T11:57:13;96933.03;;;12.93;54.96
25855;BME280;13680;49.936;11.344;2024-02-21T11:59:40;96925.75;;;12.94;55.01
25855;BME280;13680;49.936;11.344;2024-02-21T12:02:06;96925.25;;;13.23;54.83
25855;BME280;13680;49.936;11.344;2024-02-21T12:04:31;96916.97;;;13.60;52.87
25855;BME280;13680;49.936;11.344;2024-02-21T12:06:57;96909.28;;;13.53;53.95
25855;BME280;13680;49.936;11.344;2024-02-21T12:09:24;96911.28;;;14.40;51.45
25855;BME280;13680;49.936;11.344;2024-02-21T12:12:03;96904.44;;;14.08;50.68
25855;BME280;13680;49.936;11.344;2024-02-21T12:14:29;96900.78;;;13.69;51.35
25855;BME280;13680;49.936;11.344;2024-02-21T12:16:55;96895.06;;;12.81;54.22
25855;BME280;13680;49.936;11.344;2024-02-21T12:19:21;96895.50;;;13.15;53.49
25855;BME280;13680;49.936;11.344;2024-02-21T12:21:48;96886.34;;;13.24;54.87
25855;BME280;13680;49.936;11.344;2024-02-21T12:24:17;96886.81;;;13.26;53.22
25855;BME280;13680;49.936;11.344;2024-02-21T12:26:43;96882.94;;;12.70;53.87
25855;BME280;13680;49.936;11.344;2024-02-21T12:29:08;96871.03;;;13.11;53.61
25855;BME280;13680;49.936;11.344;2024-02-21T12:31:38;96876.28;;;13.91;52.04
25855;BME280;13680;49.936;11.344;2024-02-21T12:34:04;96870.88;;;13.74;50.40
25855;BME280;13680;49.936;11.344;2024-02-21T12:36:33;96862.56;;;13.44;50.86
25855;BME280;13680;49.936;11.344;2024-02-21T12:38:59;96849.25;;;13.83;49.50
25855;BME280;13680;49.936;11.344;2024-02-21T12:41:25;96851.47;;;14.07;50.07
25855;BME280;13680;49.936;11.344;2024-02-21T12:43:52;96846.03;;;14.24;49.11
25855;BME280;13680;49.936;11.344;2024-02-21T12:46:17;96841.84;;;15.01;47.80
25855;BME280;13680;49.936;11.344;2024-02-21T12:48:43;96838.94;;;14.76;46.55
25855;BME280;13680;49.936;11.344;2024-02-21T12:51:08;96835.50;;;15.27;45.48
25855;BME280;13680;49.936;11.344;2024-02-21T12:53:34;96822.56;;;15.02;45.93
25855;BME280;13680;49.936;11.344;2024-02-21T12:56:00;96820.03;;;14.67;46.31
25855;BME280;13680;49.936;11.344;2024-02-21T12:58:25;96815.56;;;15.52;45.94